Elliot Chaparral Reserve, California Weather observations

Data are for 10 minute period ending at time listed.
 Day   Time   Solar   Ave.   Ave.  Ave.  Vector  Max.   Baro.   Total    
  of    of     Rad.   Air    Rel.  Wind   Wind   Wind  Press.  Precip.   
Year   Day            Temp.  Hum.  Speed  Dir.   Gust                    
2015   (PST)  Kw/m2    F      %     mph   deg.    mph    mb.     in.     
-------------------------------------------------------------------------
  86    7:50   100.00  99999.0   99999  99999.0   99999   99999.0   99999.0   99999.00 
  86    8:00   100.00  99999.0   99999  99999.0   99999   99999.0   99999.0   99999.00 
  86    8:10   100.00  99999.0   99999  99999.0   99999   99999.0   99999.0   99999.00 
  86    8:20   100.00  99999.0   99999  99999.0   99999   99999.0   99999.0   99999.00 
  86    8:30   100.00  99999.0   99999  99999.0   99999   99999.0   99999.0   99999.00 
  86    8:40   100.00  99999.0   99999  99999.0   99999   99999.0   99999.0   99999.00 
  86    8:50   100.00  99999.0   99999  99999.0   99999   99999.0   99999.0   99999.00 
  86    9:00   100.00  99999.0   99999  99999.0   99999   99999.0   99999.0   99999.00 
  86    9:10   100.00  99999.0   99999  99999.0   99999   99999.0   99999.0   99999.00 
  86    9:20   100.00  99999.0   99999  99999.0   99999   99999.0   99999.0   99999.00 
  86    9:30   100.00  99999.0   99999  99999.0   99999   99999.0   99999.0   99999.00 
  86    9:40   100.00  99999.0   99999  99999.0   99999   99999.0   99999.0   99999.00 
  86    9:50   100.00  99999.0   99999  99999.0   99999   99999.0   99999.0   99999.00 
  86   10:00   100.00  99999.0   99999  99999.0   99999   99999.0   99999.0   99999.00 
  86   10:10   100.00  99999.0   99999  99999.0   99999   99999.0   99999.0   99999.00 
  86   10:20   100.00  99999.0   99999  99999.0   99999   99999.0   99999.0   99999.00 
  86   10:30   100.00  99999.0   99999  99999.0   99999   99999.0   99999.0   99999.00 
  86   10:40   100.00  99999.0   99999  99999.0   99999   99999.0   99999.0   99999.00 
  86   10:50   100.00  99999.0   99999  99999.0   99999   99999.0   99999.0   99999.00 
  86   11:00   100.00  99999.0   99999  99999.0   99999   99999.0   99999.0   99999.00 
  86   11:10   100.00  99999.0   99999  99999.0   99999   99999.0   99999.0   99999.00 
  86   11:20   100.00  99999.0   99999  99999.0   99999   99999.0   99999.0   99999.00 
  86   11:30   100.00  99999.0   99999  99999.0   99999   99999.0   99999.0   99999.00 
  86   11:40   100.00  99999.0   99999  99999.0   99999   99999.0   99999.0   99999.00 
  86   11:50   100.00  99999.0   99999  99999.0   99999   99999.0   99999.0   99999.00 
  86   12:00   100.00  99999.0   99999  99999.0   99999   99999.0   99999.0   99999.00 
  86   12:10   100.00  99999.0   99999  99999.0   99999   99999.0   99999.0   99999.00 
  86   12:20   100.00  99999.0   99999  99999.0   99999   99999.0   99999.0   99999.00 
  86   12:30   100.00  99999.0   99999  99999.0   99999   99999.0   99999.0   99999.00 
  86   12:40   100.00  99999.0   99999  99999.0   99999   99999.0   99999.0   99999.00 
  86   12:50   100.00  99999.0   99999  99999.0   99999   99999.0   99999.0   99999.00 
  86   13:00   100.00  99999.0   99999  99999.0   99999   99999.0   99999.0   99999.00 
  86   13:10   100.00  99999.0   99999  99999.0   99999   99999.0   99999.0   99999.00 
  86   13:20   100.00  99999.0   99999  99999.0   99999   99999.0   99999.0   99999.00 
  86   13:30   100.00  99999.0   99999  99999.0   99999   99999.0   99999.0   99999.00 
  86   13:40   100.00  99999.0   99999  99999.0   99999   99999.0   99999.0   99999.00 
  86   13:50   100.00  99999.0   99999  99999.0   99999   99999.0   99999.0   99999.00 
  86   14:00   100.00  99999.0   99999  99999.0   99999   99999.0   99999.0   99999.00 
  86   14:10   100.00  99999.0   99999  99999.0   99999   99999.0   99999.0   99999.00 
  86   14:20   100.00  99999.0   99999  99999.0   99999   99999.0   99999.0   99999.00 
  86   14:30   100.00  99999.0   99999  99999.0   99999   99999.0   99999.0   99999.00 
  86   14:40   100.00  99999.0   99999  99999.0   99999   99999.0   99999.0   99999.00 
  86   14:50   100.00  99999.0   99999  99999.0   99999   99999.0   99999.0   99999.00 
  86   15:00   100.00  99999.0   99999  99999.0   99999   99999.0   99999.0   99999.00 
  86   15:10   100.00  99999.0   99999  99999.0   99999   99999.0   99999.0   99999.00 
  86   15:20   100.00  99999.0   99999  99999.0   99999   99999.0   99999.0   99999.00 
  86   15:30   100.00  99999.0   99999  99999.0   99999   99999.0   99999.0   99999.00 
  86   15:40   100.00  99999.0   99999  99999.0   99999   99999.0   99999.0   99999.00 
  86   15:50   100.00  99999.0   99999  99999.0   99999   99999.0   99999.0   99999.00 
  86   16:00   100.00  99999.0   99999  99999.0   99999   99999.0   99999.0   99999.00 
  86   16:10   100.00  99999.0   99999  99999.0   99999   99999.0   99999.0   99999.00 
  86   16:20   100.00  99999.0   99999  99999.0   99999   99999.0   99999.0   99999.00 
  86   16:30   100.00  99999.0   99999  99999.0   99999   99999.0   99999.0   99999.00 
  86   16:40   0.26   75.3    35   11.1   312    14.5   987.1    0.00 
  86   16:50   0.23   75.2    34   10.2   295    13.7   987.2    0.00 
  86   17:00   0.19   75.8    34    7.6   305    10.7   987.2    0.00 
  86   17:10   0.16   75.7    34    5.9   315     8.7   987.2    0.00 
  86   17:20   0.12   75.8    30    6.0   333     8.3   987.3    0.00 
  86   17:30   0.09   75.7    28    4.9   334     6.9   987.4    0.00 
  86   17:40   0.06   75.5    28    4.4   318     6.1   987.5    0.00 
  86   17:50   0.03   75.0    32    3.2   279     4.6   987.5    0.00 
  86   18:00   0.01   74.0    33    2.4   268     3.4   987.5    0.00 
  86   18:10   0.00   72.8    33    1.2   217     2.6   987.6    0.00 
  86   18:20   0.00   71.3    34    2.3   213     3.4   987.7    0.00 
  86   18:30   0.00   70.2    36    4.6   226     6.2   987.9    0.00 
  86   18:40   0.00   68.6    46    5.6   248     6.6   988.1    0.00 
  86   18:50   0.00   68.2    47    2.3   259     4.5   988.1    0.00 
  86   19:00   0.00   67.6    46    0.8   226     1.7   988.2    0.00 
  86   19:10   0.00   67.5    47    1.9   115     2.6   988.2    0.00 
  86   19:20   0.00   68.1    46    1.1   204     3.1   988.4    0.00 
  86   19:30   0.00   68.3    45    3.8   256     4.2   988.7    0.00 
  86   19:40   0.00   67.7    44    3.3   265     3.9   988.9    0.00 
  86   19:50   0.00   67.4    44    2.5   236     3.4   988.9    0.00 
  86   20:00   0.00   66.2    47    2.8   185     3.5   988.9    0.00 
  86   20:10   0.00   65.0    52    1.9   180     3.0   988.9    0.00 
  86   20:20   0.00   65.0    57    2.2   171     3.4   989.0    0.00 
  86   20:30   0.00   65.1    60    2.7   151     3.1   989.0    0.00 
  86   20:40   0.00   65.0    61    3.6   188     5.3   989.0    0.00 
  86   20:50   0.00   64.5    64    3.2   211     4.2   989.1    0.00 
  86   21:00   0.00   64.0    65    3.0   213     3.9   989.2    0.00 
  86   21:10   0.00   63.4    70    3.6   191     5.3   989.3    0.00 
  86   21:20   0.00   62.8    75    4.6   193     5.4   989.4    0.00 
  86   21:30   0.00   62.1    78    3.9   207     4.9   989.5    0.00 
  86   21:40   0.00   61.8    81    3.6   197     4.5   989.5    0.00 
  86   21:50   0.00   61.6    84    4.0   195     4.9   989.6    0.00 
  86   22:00   0.00   61.2    85    4.5   214     5.6   989.8    0.00 
  86   22:10   0.00   60.4    84    3.4   166     4.1   989.7    0.00 
  86   22:20   0.00   60.0    88    3.5   118     4.2   989.5    0.00 
  86   22:30   0.00   60.7    90    3.2    81     4.2   989.5    0.00 
  86   22:40   0.00   61.3    90    3.6    74     4.7   989.4    0.00 
  86   22:50   0.00   62.2    76    1.6    80     3.9   989.5    0.00 
  86   23:00   0.00   62.7    70    2.1    58     2.8   989.3    0.00 
  86   23:10   0.00   63.7    73    1.1   291     3.1   989.2    0.00 
  86   23:20   0.00   62.1    87    2.5   270     3.2   989.3    0.00 
  86   23:30   0.00   60.2    84    4.4   318     5.6   989.3    0.00 
  86   23:40   0.00   60.1    86    4.8   326     5.8   989.2    0.00 
  86   23:50   0.00   59.8    87    5.2   342     6.1   989.2    0.00 
  87    0:00   0.00   59.8    88    3.6   346     5.0   989.2    0.00 
  87    0:10   0.00   59.8    88    2.1   319     3.1   989.3    0.00 
  87    0:20   0.00   59.9    87    2.2   335     4.2   989.1    0.00 
  87    0:30   0.00   59.5    86    3.3   337     4.2   989.0    0.00 
  87    0:40   0.00   58.9    88    3.6   331     4.8   989.0    0.00 
  87    0:50   0.00   58.6    89    2.7   336     3.7   989.0    0.00 
  87    1:00   0.00   58.0    90    2.8   340     3.9   989.0    0.00 
  87    1:10   0.00   57.7    91    1.9    31     2.7   988.9    0.00 
  87    1:20   0.00   58.0    92    2.0   107     2.6   988.8    0.00 
  87    1:30   0.00   57.7    92    1.8   151     3.2   988.8    0.00 
  87    1:40   0.00   56.8    92    3.3   161     4.0   988.7    0.00 
  87    1:50   0.00   56.7    92    2.5    94     4.2   988.7    0.00 
  87    2:00   0.00   56.9    91    1.5    44     2.4   988.5    0.00 
  87    2:10   0.00   57.6    92    2.0   103     3.0   988.5    0.00 
  87    2:20   0.00   57.1    91    1.6   114     3.8   988.5    0.00 
  87    2:30   0.00   55.6    92    5.0    97     6.8   988.3    0.00 
  87    2:40   0.00   57.1    87    5.5   111     6.8   988.3    0.00 
  87    2:50   0.00   58.0    77    4.5    95     6.6   988.1    0.00 
  87    3:00   0.00   58.2    76    2.1    74     5.8   988.1    0.00 
  87    3:10   0.00   57.8    78    0.9   338     2.0   988.1    0.00 
  87    3:20   0.00   57.9    78    2.0   269     4.1   988.3    0.00 
  87    3:30   0.00   55.9    87    3.9   292     5.1   988.4    0.00 
  87    3:40   0.00   54.2    92    3.7   330     4.5   988.3    0.00 
  87    3:50   0.00   53.8    93    3.8   346     4.7   988.3    0.00 
  87    4:00   0.00   53.6    94    4.2    15     5.6   988.3    0.00 
  87    4:10   0.00   54.6    95    2.6    58     3.7   988.3    0.00 
  87    4:20   0.00   54.7    94    1.4   338     3.1   988.4    0.00 
  87    4:30   0.00   52.8    94    4.0     2     5.7   988.5    0.00 
  87    4:40   0.00   52.8    95    3.1     1     3.9   988.5    0.00 
  87    4:50   0.00   53.3    95    2.8    28     3.5   988.5    0.00 
  87    5:00   0.00   53.7    95    3.1    64     3.7   988.5    0.00 
  87    5:10   0.00   54.0    95    2.6    56     3.2   988.4    0.00 
  87    5:20   0.00   53.9    94    0.5    70     2.4   988.5    0.00 
  87    5:30   0.00   53.7    94    0.8   136     2.0   988.6    0.00 
  87    5:40   0.00   54.0    94    2.5   125     3.9   988.7    0.00 
  87    5:50   0.00   54.8    88    3.2   133     4.3   988.8    0.00 
  87    6:00   0.01   55.0    83    2.2    83     3.7   988.8    0.00 
  87    6:10   0.04   56.4    72    4.2    64     5.6   988.6    0.00 
  87    6:20   0.08   58.5    62    6.3    68     7.5   988.6    0.00 
  87    6:30   0.10   60.6    57    6.9    65     7.8   988.6    0.00 
  87    6:40   0.14   62.5    56    5.9    66     7.3   988.5    0.00 
  87    6:50   0.17   63.7    56    5.9    70     6.9   988.6    0.00 
  87    7:00   0.21   66.2    49    5.0    93     7.8   988.7    0.00 
  87    7:10   0.24   65.2    51    4.1   148     7.0   989.2    0.00 
  87    7:20   0.28   65.1    51    2.9   161     4.5   989.2    0.00 
  87    7:30   0.32   66.8    44    2.9   120     5.6   989.2    0.00 
  87    7:40   0.36   68.8    38    2.6   126     4.2   989.2    0.00 

Return to Elliot Chaparral Reserve graphs page.


Western Regional Climate Center,wrcc@dri.edu